createdAt,value
2023-03-02T00:01:47.036Z,3.60
2023-03-02T00:04:19.066Z,3.51
2023-03-02T00:06:49.517Z,3.57
2023-03-02T00:09:18.167Z,3.56
2023-03-02T00:11:46.636Z,3.61
2023-03-02T00:14:14.479Z,3.49
2023-03-02T00:16:42.179Z,3.52
2023-03-02T00:19:09.979Z,3.48
2023-03-02T00:21:37.761Z,3.47
2023-03-02T00:24:07.855Z,3.44
2023-03-02T00:26:35.759Z,3.36
2023-03-02T00:29:04.810Z,3.33
2023-03-02T00:31:32.644Z,3.30
2023-03-02T00:34:00.556Z,3.28
2023-03-02T00:36:28.307Z,3.08
2023-03-02T00:38:57.450Z,3.22
2023-03-02T00:41:26.562Z,3.19
2023-03-02T00:43:54.363Z,3.19
2023-03-02T00:46:24.312Z,3.04
2023-03-02T00:48:52.624Z,3.18
2023-03-02T00:51:20.918Z,3.16
2023-03-02T00:53:48.674Z,3.11
2023-03-02T00:56:16.469Z,3.12
2023-03-02T00:58:50.451Z,3.15
2023-03-02T01:01:18.824Z,3.25
2023-03-02T01:03:50.286Z,3.19
2023-03-02T01:06:21.592Z,3.08
2023-03-02T01:08:49.679Z,3.14
2023-03-02T01:11:19.773Z,3.09
2023-03-02T01:13:48.271Z,3.06
2023-03-02T01:16:17.696Z,3.11
2023-03-02T01:18:45.575Z,3.09
2023-03-02T01:21:15.361Z,2.91
2023-03-02T01:23:43.783Z,3.00
2023-03-02T01:26:12.757Z,2.99
2023-03-02T01:28:40.553Z,2.94
2023-03-02T01:31:08.473Z,2.96
2023-03-02T01:33:37.662Z,2.86
2023-03-02T01:36:06.090Z,2.90
2023-03-02T01:38:33.928Z,2.75
2023-03-02T01:41:01.751Z,2.86
2023-03-02T01:43:30.199Z,2.86
2023-03-02T01:46:02.768Z,2.88
2023-03-02T01:48:55.576Z,2.78
2023-03-02T01:51:48.705Z,2.75
2023-03-02T01:54:23.839Z,2.81
2023-03-02T01:57:00.605Z,2.37
2023-03-02T01:59:32.200Z,2.81
2023-03-02T02:02:03.654Z,2.80
2023-03-02T02:04:35.478Z,2.80
2023-03-02T02:07:05.525Z,2.80
2023-03-02T02:09:38.294Z,2.75
2023-03-02T02:12:06.806Z,2.75
2023-03-02T02:14:35.188Z,2.76
2023-03-02T02:17:03.381Z,2.77
2023-03-02T02:19:45.949Z,2.74
2023-03-02T02:22:22.467Z,2.73
2023-03-02T02:24:57.364Z,2.69
2023-03-02T02:27:33.635Z,2.71
2023-03-02T02:30:04.046Z,2.59
2023-03-02T02:32:36.102Z,2.77
2023-03-02T02:35:08.050Z,2.64
2023-03-02T02:37:42.363Z,2.67
2023-03-02T02:40:16.403Z,2.69
2023-03-02T02:42:48.993Z,2.69
2023-03-02T02:45:24.012Z,2.68
2023-03-02T02:47:53.459Z,2.73
2023-03-02T02:50:25.127Z,2.73
2023-03-02T02:52:58.410Z,2.69
2023-03-02T02:55:27.706Z,2.66
2023-03-02T02:58:00.479Z,2.55
2023-03-02T03:00:28.529Z,2.60
2023-03-02T03:03:06.081Z,2.60
2023-03-02T03:05:33.893Z,2.59
2023-03-02T03:08:09.566Z,2.51
2023-03-02T03:10:41.195Z,2.50
2023-03-02T03:13:12.510Z,2.52
2023-03-02T03:15:40.248Z,2.51
2023-03-02T03:18:09.078Z,2.54
2023-03-02T03:20:36.828Z,2.52
2023-03-02T03:23:04.761Z,2.60
2023-03-02T03:25:34.965Z,2.64
2023-03-02T03:28:03.996Z,2.47
2023-03-02T03:30:34.431Z,2.60
2023-03-02T03:33:02.648Z,2.48
2023-03-02T03:35:31.010Z,2.51
2023-03-02T03:37:59.152Z,2.31
2023-03-02T03:40:29.067Z,2.48
2023-03-02T03:42:57.204Z,2.54
2023-03-02T03:45:25.129Z,2.57
2023-03-02T03:47:54.461Z,2.51
2023-03-02T03:50:23.498Z,2.51
2023-03-02T03:52:51.558Z,2.44
2023-03-02T03:55:28.346Z,2.45
2023-03-02T03:57:56.622Z,2.47
2023-03-02T04:00:25.243Z,2.46
2023-03-02T04:03:00.453Z,2.54
2023-03-02T04:05:31.748Z,2.64
2023-03-02T04:08:02.098Z,2.54
2023-03-02T04:10:31.289Z,2.54
2023-03-02T04:12:59.403Z,2.51
2023-03-02T04:15:28.389Z,2.54
2023-03-02T04:17:57.620Z,2.48
2023-03-02T04:20:28.873Z,2.40
2023-03-02T04:22:58.731Z,2.44
2023-03-02T04:25:29.440Z,2.45
2023-03-02T04:28:02.335Z,2.44
2023-03-02T04:30:35.381Z,2.48
2023-03-02T04:33:03.272Z,2.45
2023-03-02T04:35:33.971Z,2.46
2023-03-02T04:38:03.222Z,2.45
2023-03-02T04:40:31.418Z,2.46
2023-03-02T04:42:59.200Z,2.43
2023-03-02T04:45:26.992Z,2.40
2023-03-02T04:47:54.721Z,2.30
2023-03-02T04:50:22.815Z,2.34
2023-03-02T04:52:53.651Z,2.38
2023-03-02T04:55:23.683Z,2.33
2023-03-02T04:57:51.704Z,2.29
2023-03-02T05:00:21.687Z,2.32
2023-03-02T05:02:49.672Z,2.30
2023-03-02T05:05:19.594Z,2.26
2023-03-02T05:07:48.140Z,2.24
2023-03-02T05:10:18.652Z,2.28
2023-03-02T05:12:57.838Z,2.32
2023-03-02T05:15:27.192Z,2.29
2023-03-02T05:17:55.024Z,2.29
2023-03-02T05:20:27.389Z,2.34
2023-03-02T05:22:56.472Z,2.29
2023-03-02T05:25:26.888Z,2.29
2023-03-02T05:27:54.736Z,2.24
2023-03-02T05:30:24.200Z,2.24
2023-03-02T05:32:53.398Z,2.23
2023-03-02T05:35:22.685Z,2.09
2023-03-02T05:37:50.715Z,2.17
2023-03-02T05:40:21.173Z,2.18
2023-03-02T05:42:50.657Z,2.20
2023-03-02T05:45:21.554Z,2.11
2023-03-02T05:47:49.316Z,2.09
2023-03-02T05:50:17.546Z,2.07
2023-03-02T05:52:46.387Z,1.93
2023-03-02T05:55:14.759Z,2.11
2023-03-02T05:57:42.685Z,2.09
2023-03-02T06:00:15.570Z,2.04
2023-03-02T06:02:44.218Z,2.02
2023-03-02T06:05:15.326Z,1.93
2023-03-02T06:07:43.981Z,1.92
2023-03-02T06:10:13.656Z,2.07
2023-03-02T06:12:42.912Z,2.13
2023-03-02T06:15:12.088Z,2.07
2023-03-02T06:17:40.003Z,1.99
2023-03-02T06:20:10.976Z,2.03
2023-03-02T06:22:41.209Z,1.99
2023-03-02T06:25:10.400Z,2.00
2023-03-02T06:27:39.246Z,1.99
2023-03-02T06:30:08.541Z,1.98
2023-03-02T06:32:37.740Z,2.03
2023-03-02T06:35:06.825Z,2.05
2023-03-02T06:37:34.798Z,2.01
2023-03-02T06:40:02.551Z,2.01
2023-03-02T06:42:30.484Z,1.99
2023-03-02T06:44:58.244Z,1.99
2023-03-02T06:47:26.064Z,1.97
2023-03-02T06:49:55.179Z,1.99
2023-03-02T06:52:23.090Z,1.90
2023-03-02T06:54:50.842Z,2.06
2023-03-02T06:57:18.651Z,2.07
2023-03-02T06:59:46.410Z,2.13
2023-03-02T07:02:14.358Z,2.19
2023-03-02T07:04:42.089Z,2.15
2023-03-02T07:07:11.270Z,2.14
2023-03-02T07:09:39.044Z,2.13
2023-03-02T07:12:07.377Z,2.14
2023-03-02T07:14:36.349Z,2.19
2023-03-02T07:17:05.329Z,2.17
2023-03-02T07:19:33.093Z,2.21
2023-03-02T07:22:01.078Z,2.29
2023-03-02T07:24:30.226Z,2.34
2023-03-02T07:26:57.969Z,2.36
2023-03-02T07:29:25.786Z,2.37
2023-03-02T07:31:57.138Z,2.40
2023-03-02T07:34:25.649Z,2.41
2023-03-02T07:36:54.126Z,2.43
2023-03-02T07:39:22.045Z,2.47
2023-03-02T07:41:51.268Z,2.47
2023-03-02T07:44:22.161Z,2.49
2023-03-02T07:46:49.989Z,2.50
2023-03-02T07:49:19.716Z,2.55
2023-03-02T07:51:47.477Z,2.44
2023-03-02T07:54:15.204Z,2.66
2023-03-02T07:56:43.052Z,2.71
2023-03-02T07:59:12.446Z,2.75
2023-03-02T08:01:41.909Z,2.74
2023-03-02T08:04:09.634Z,2.88
2023-03-02T08:06:37.431Z,2.97
2023-03-02T08:09:05.604Z,3.06
2023-03-02T08:11:33.697Z,3.12
2023-03-02T08:14:02.182Z,3.17
2023-03-02T08:16:31.860Z,3.23
2023-03-02T08:19:00.116Z,3.25
2023-03-02T08:21:29.268Z,3.33
2023-03-02T08:23:58.392Z,3.37
2023-03-02T08:26:26.188Z,3.43
2023-03-02T08:28:53.953Z,3.50
2023-03-02T08:31:21.715Z,3.58
2023-03-02T08:33:50.967Z,3.61
2023-03-02T08:36:20.680Z,3.67
2023-03-02T08:38:49.902Z,3.74
2023-03-02T08:41:20.029Z,3.79
2023-03-02T08:43:48.026Z,3.79
2023-03-02T08:46:18.215Z,3.87
2023-03-02T08:48:46.318Z,3.94
2023-03-02T08:51:17.430Z,3.98
2023-03-02T08:53:47.229Z,4.02
2023-03-02T08:56:20.083Z,4.02
2023-03-02T08:58:48.675Z,4.09
2023-03-02T09:01:18.338Z,4.13
2023-03-02T09:03:46.215Z,4.16
2023-03-02T09:06:16.279Z,4.18
2023-03-02T09:08:44.276Z,4.21
2023-03-02T09:11:12.188Z,4.27
2023-03-02T09:13:40.196Z,4.25
2023-03-02T09:16:09.405Z,4.36
2023-03-02T09:18:37.568Z,4.40
2023-03-02T09:21:06.336Z,4.44
2023-03-02T09:23:36.585Z,4.53
2023-03-02T09:26:05.163Z,4.54
2023-03-02T09:28:33.230Z,4.53
2023-03-02T09:31:02.644Z,4.61
2023-03-02T09:33:31.453Z,4.70
2023-03-02T09:35:59.685Z,4.77
2023-03-02T09:38:27.882Z,4.79
2023-03-02T09:41:14.073Z,4.88
2023-03-02T09:43:49.771Z,4.91
2023-03-02T09:46:21.901Z,4.98
2023-03-02T09:49:17.504Z,5.03
2023-03-02T09:51:51.459Z,5.13
2023-03-02T09:54:24.508Z,5.32
2023-03-02T09:56:56.018Z,5.47
2023-03-02T09:59:27.140Z,5.86
2023-03-02T10:02:01.283Z,6.13
2023-03-02T10:04:32.159Z,6.43
2023-03-02T10:07:11.581Z,6.71
2023-03-02T10:09:40.046Z,6.87
2023-03-02T10:12:28.345Z,6.99
2023-03-02T10:15:02.411Z,7.18
2023-03-02T10:17:44.088Z,7.18
2023-03-02T10:20:17.471Z,7.39
2023-03-02T10:22:51.125Z,7.39
2023-03-02T10:25:27.781Z,7.67
2023-03-02T10:28:02.834Z,7.65
2023-03-02T10:30:35.227Z,8.11
2023-03-02T10:33:09.287Z,8.32
2023-03-02T10:35:39.358Z,8.21
2023-03-02T10:38:13.608Z,8.33
2023-03-02T10:40:44.494Z,8.43
2023-03-02T10:43:18.834Z,8.93
2023-03-02T10:45:47.575Z,8.98
2023-03-02T10:48:16.068Z,8.98
2023-03-02T10:50:45.203Z,9.05
2023-03-02T10:53:18.894Z,9.10
2023-03-02T10:55:48.783Z,9.36
2023-03-02T10:58:25.774Z,9.25
2023-03-02T11:00:59.111Z,9.46
2023-03-02T11:03:27.615Z,9.56
2023-03-02T11:05:55.784Z,9.83
2023-03-02T11:08:27.469Z,10.29
2023-03-02T11:11:00.642Z,10.55
2023-03-02T11:13:32.459Z,10.75
2023-03-02T11:16:02.299Z,10.75
2023-03-02T11:18:33.987Z,11.11
2023-03-02T11:21:05.590Z,11.32
2023-03-02T11:23:41.924Z,11.31
2023-03-02T11:26:19.126Z,11.46
2023-03-02T11:28:55.809Z,11.69
2023-03-02T11:31:32.710Z,11.50
2023-03-02T11:34:17.302Z,11.94
2023-03-02T11:36:58.913Z,12.17
2023-03-02T11:39:32.709Z,12.32
2023-03-02T11:42:00.526Z,12.49
2023-03-02T11:44:29.856Z,12.59
2023-03-02T11:47:02.026Z,12.67
2023-03-02T11:49:38.940Z,12.76
2023-03-02T11:52:17.057Z,12.85
2023-03-02T11:54:47.642Z,13.06
2023-03-02T11:57:23.823Z,13.07
2023-03-02T11:59:54.694Z,12.79
2023-03-02T12:02:23.169Z,12.58
2023-03-02T12:04:50.967Z,12.12
2023-03-02T12:07:23.334Z,12.11
2023-03-02T12:10:02.609Z,12.03
2023-03-02T12:13:01.811Z,12.13
2023-03-02T12:15:41.398Z,12.14
2023-03-02T12:18:29.318Z,11.84
2023-03-02T12:21:02.745Z,11.76
2023-03-02T12:23:31.715Z,12.06
2023-03-02T12:26:07.020Z,11.89
2023-03-02T12:28:36.955Z,11.74
2023-03-02T12:31:10.804Z,11.74
2023-03-02T12:33:48.757Z,11.65
2023-03-02T12:36:23.673Z,11.61
2023-03-02T12:39:13.326Z,11.74
2023-03-02T12:41:55.612Z,12.02
2023-03-02T12:44:47.802Z,12.28
2023-03-02T12:47:26.105Z,12.65
2023-03-02T12:49:57.846Z,12.80
2023-03-02T12:52:32.861Z,12.73
2023-03-02T12:55:02.774Z,12.77
2023-03-02T12:57:31.482Z,12.88
2023-03-02T13:00:01.208Z,13.25
2023-03-02T13:02:34.337Z,13.50
2023-03-02T13:05:04.438Z,13.28
2023-03-02T13:07:41.234Z,13.11
2023-03-02T13:10:21.495Z,13.07
2023-03-02T13:12:49.449Z,13.09
2023-03-02T13:15:18.613Z,13.27
2023-03-02T13:17:54.815Z,13.46
2023-03-02T13:20:23.654Z,13.81
2023-03-02T13:22:51.562Z,14.16
2023-03-02T13:25:26.620Z,14.45
2023-03-02T13:27:57.026Z,14.46
2023-03-02T13:30:28.011Z,14.45
2023-03-02T13:33:02.805Z,14.45
2023-03-02T13:35:32.770Z,14.42
2023-03-02T13:38:04.566Z,14.38
2023-03-02T13:40:44.716Z,14.29
2023-03-02T13:43:24.017Z,14.19
2023-03-02T13:45:54.543Z,14.18
2023-03-02T13:48:24.114Z,14.12
2023-03-02T13:50:54.497Z,14.02
2023-03-02T13:53:24.247Z,13.82
2023-03-02T13:55:54.044Z,13.74
2023-03-02T13:58:24.405Z,13.70
2023-03-02T14:00:52.735Z,13.69
2023-03-02T14:03:26.146Z,13.68
2023-03-02T14:05:54.549Z,13.70
2023-03-02T14:08:22.482Z,13.70
2023-03-02T14:10:52.695Z,13.59
2023-03-02T14:13:22.957Z,13.50
2023-03-02T14:15:54.093Z,13.47
2023-03-02T14:18:32.581Z,13.46
2023-03-02T14:21:00.610Z,13.43
2023-03-02T14:23:28.851Z,13.51
2023-03-02T14:25:57.590Z,13.46
2023-03-02T14:28:29.007Z,13.42
2023-03-02T14:30:58.944Z,13.37
2023-03-02T14:33:28.412Z,13.37
2023-03-02T14:35:59.343Z,13.37
2023-03-02T14:38:28.180Z,13.38
2023-03-02T14:40:56.288Z,13.38
2023-03-02T14:43:25.238Z,13.33
2023-03-02T14:45:53.337Z,13.26
2023-03-02T14:48:21.206Z,13.18
2023-03-02T14:50:51.274Z,13.16
2023-03-02T14:53:23.194Z,13.17
2023-03-02T14:55:51.090Z,13.10
2023-03-02T14:58:20.994Z,13.03
2023-03-02T15:00:49.010Z,13.00
2023-03-02T15:03:19.350Z,12.95
2023-03-02T15:06:00.167Z,12.87
2023-03-02T15:08:30.406Z,12.76
2023-03-02T15:10:58.158Z,12.74
2023-03-02T15:13:25.893Z,12.71
2023-03-02T15:15:53.712Z,12.64
2023-03-02T15:18:21.425Z,12.59
2023-03-02T15:20:49.149Z,12.48
2023-03-02T15:23:16.861Z,12.41
2023-03-02T15:25:45.997Z,12.43
2023-03-02T15:28:13.872Z,12.32
2023-03-02T15:30:41.815Z,12.25
2023-03-02T15:33:09.549Z,12.09
2023-03-02T15:35:40.203Z,12.08
2023-03-02T15:38:07.983Z,11.98
2023-03-02T15:40:36.746Z,11.89
2023-03-02T15:43:05.904Z,11.80
2023-03-02T15:45:33.695Z,11.76
2023-03-02T15:48:01.475Z,11.61
2023-03-02T15:50:29.289Z,11.50
2023-03-02T15:52:57.430Z,11.45
2023-03-02T15:55:25.202Z,11.37
2023-03-02T15:57:53.536Z,11.28
2023-03-02T16:00:23.457Z,11.25
2023-03-02T16:02:51.285Z,11.15
2023-03-02T16:05:19.070Z,11.09
2023-03-02T16:07:46.851Z,11.02
2023-03-02T16:10:16.478Z,10.98
2023-03-02T16:12:44.316Z,10.93
2023-03-02T16:15:12.415Z,10.89
2023-03-02T16:17:43.251Z,10.75
2023-03-02T16:20:12.413Z,10.79
2023-03-02T16:22:40.266Z,10.74
2023-03-02T16:25:08.664Z,10.68
2023-03-02T16:27:36.346Z,10.65
2023-03-02T16:30:04.970Z,10.66
2023-03-02T16:32:33.991Z,10.61
2023-03-02T16:35:03.137Z,10.57
2023-03-02T16:37:30.916Z,10.53
2023-03-02T16:39:58.729Z,10.50
2023-03-02T16:42:28.400Z,10.43
2023-03-02T16:44:56.136Z,10.33
2023-03-02T16:47:23.848Z,10.18
2023-03-02T16:49:51.557Z,10.19
2023-03-02T16:52:20.610Z,10.12
2023-03-02T16:54:48.369Z,10.11
2023-03-02T16:57:16.090Z,10.02
2023-03-02T16:59:43.904Z,9.96
2023-03-02T17:02:12.193Z,9.90
2023-03-02T17:04:40.081Z,9.87
2023-03-02T17:07:08.665Z,9.74
2023-03-02T17:09:41.379Z,9.76
2023-03-02T17:12:12.542Z,9.40
2023-03-02T17:14:45.594Z,9.14
2023-03-02T17:17:15.706Z,9.03
2023-03-02T17:19:44.269Z,9.06
2023-03-02T17:22:14.990Z,8.83
2023-03-02T17:24:44.830Z,9.42
2023-03-02T17:27:24.178Z,9.33
2023-03-02T17:29:53.074Z,8.97
2023-03-02T17:32:21.350Z,9.10
2023-03-02T17:34:49.068Z,9.02
2023-03-02T17:37:17.518Z,8.94
2023-03-02T17:39:46.849Z,8.91
2023-03-02T17:42:14.601Z,8.89
2023-03-02T17:44:43.705Z,8.78
2023-03-02T17:47:11.642Z,8.71
2023-03-02T17:49:39.648Z,8.67
2023-03-02T17:52:07.935Z,8.62
2023-03-02T17:54:35.688Z,8.59
2023-03-02T17:57:04.875Z,8.55
2023-03-02T17:59:32.899Z,8.61
2023-03-02T18:02:00.711Z,8.58
2023-03-02T18:04:28.580Z,8.61
2023-03-02T18:06:56.324Z,8.62
2023-03-02T18:09:24.170Z,8.58
2023-03-02T18:11:51.943Z,8.50
2023-03-02T18:14:21.849Z,8.40
2023-03-02T18:16:49.664Z,8.31
2023-03-02T18:19:17.439Z,8.24
2023-03-02T18:21:45.383Z,8.14
2023-03-02T18:24:13.493Z,8.11
2023-03-02T18:26:41.773Z,7.99
2023-03-02T18:29:09.545Z,7.97
2023-03-02T18:31:38.746Z,7.89
2023-03-02T18:34:06.558Z,7.81
2023-03-02T18:36:34.390Z,7.68
2023-03-02T18:39:03.339Z,7.61
2023-03-02T18:41:32.550Z,7.63
2023-03-02T18:44:03.770Z,7.57
2023-03-02T18:46:32.954Z,7.61
2023-03-02T18:49:04.165Z,7.58
2023-03-02T18:51:32.112Z,7.58
2023-03-02T18:53:59.807Z,7.60
2023-03-02T18:56:27.664Z,7.58
2023-03-02T18:58:55.481Z,7.62
2023-03-02T19:01:23.252Z,7.66
2023-03-02T19:03:51.029Z,7.63
2023-03-02T19:06:20.500Z,7.57
2023-03-02T19:08:48.307Z,7.53
2023-03-02T19:11:16.117Z,7.47
2023-03-02T19:13:43.956Z,7.43
2023-03-02T19:16:11.779Z,7.37
2023-03-02T19:18:39.860Z,7.33
2023-03-02T19:21:07.769Z,7.41
2023-03-02T19:23:36.967Z,7.43
2023-03-02T19:26:05.611Z,7.42
2023-03-02T19:28:34.156Z,7.40
2023-03-02T19:31:03.804Z,7.40
2023-03-02T19:33:31.591Z,7.36
2023-03-02T19:35:59.550Z,7.28
2023-03-02T19:38:29.253Z,7.26
2023-03-02T19:41:00.250Z,7.15
2023-03-02T19:43:28.317Z,7.07
2023-03-02T19:45:56.507Z,7.05
2023-03-02T19:48:29.842Z,6.97
2023-03-02T19:50:57.829Z,6.87
2023-03-02T19:53:25.544Z,6.84
2023-03-02T19:55:53.296Z,6.90
2023-03-02T19:58:23.413Z,6.97
2023-03-02T20:00:51.399Z,6.94
2023-03-02T20:03:19.178Z,6.91
2023-03-02T20:05:46.961Z,6.91
2023-03-02T20:08:16.740Z,6.86
2023-03-02T20:10:46.628Z,6.78
2023-03-02T20:13:14.934Z,6.80
2023-03-02T20:15:46.101Z,6.79
2023-03-02T20:18:16.461Z,6.76
2023-03-02T20:20:45.199Z,6.68
2023-03-02T20:23:13.477Z,6.66
2023-03-02T20:25:41.346Z,6.70
2023-03-02T20:28:11.805Z,6.65
2023-03-02T20:30:42.567Z,6.61
2023-03-02T20:33:13.143Z,6.52
2023-03-02T20:35:43.647Z,6.50
2023-03-02T20:38:16.020Z,6.49
2023-03-02T20:40:44.616Z,6.43
2023-03-02T20:43:12.803Z,6.46
2023-03-02T20:45:41.176Z,6.45
2023-03-02T20:48:09.004Z,6.38
2023-03-02T20:50:38.623Z,6.39
2023-03-02T20:53:10.077Z,6.38
2023-03-02T20:55:37.820Z,6.30
2023-03-02T20:58:06.394Z,6.23
2023-03-02T21:00:36.583Z,6.19
2023-03-02T21:03:05.412Z,6.13
2023-03-02T21:05:35.008Z,6.07
2023-03-02T21:08:04.251Z,6.11
2023-03-02T21:10:35.525Z,6.03
2023-03-02T21:13:03.529Z,5.98
2023-03-02T21:15:32.195Z,5.97
2023-03-02T21:18:00.449Z,5.90
2023-03-02T21:20:31.384Z,5.91
2023-03-02T21:22:59.327Z,5.88
2023-03-02T21:25:28.992Z,5.83
2023-03-02T21:27:56.850Z,5.79
2023-03-02T21:30:27.974Z,5.84
2023-03-02T21:32:55.771Z,5.85
2023-03-02T21:35:24.185Z,5.82
2023-03-02T21:37:54.754Z,5.76
2023-03-02T21:40:26.352Z,5.77
2023-03-02T21:42:55.997Z,5.69
2023-03-02T21:45:24.176Z,5.61
2023-03-02T21:47:52.038Z,5.60
2023-03-02T21:50:22.452Z,5.60
2023-03-02T21:52:50.670Z,5.57
2023-03-02T21:55:18.567Z,5.54
2023-03-02T21:57:46.419Z,5.56
2023-03-02T22:00:22.647Z,5.54
2023-03-02T22:02:51.083Z,5.58
2023-03-02T22:05:19.218Z,5.56
2023-03-02T22:07:47.625Z,5.58
2023-03-02T22:10:25.680Z,5.54
2023-03-02T22:12:56.195Z,5.62
2023-03-02T22:15:25.267Z,5.57
2023-03-02T22:17:53.029Z,5.57
2023-03-02T22:20:21.276Z,5.56
2023-03-02T22:22:49.736Z,5.51
2023-03-02T22:25:19.640Z,5.46
2023-03-02T22:27:48.062Z,5.39
2023-03-02T22:30:19.698Z,5.37
2023-03-02T22:32:49.665Z,5.31
2023-03-02T22:35:23.605Z,5.35
2023-03-02T22:37:52.843Z,5.34
2023-03-02T22:40:30.375Z,5.30
2023-03-02T22:43:11.257Z,5.29
2023-03-02T22:45:40.641Z,5.31
2023-03-02T22:48:16.665Z,5.44
2023-03-02T22:50:45.950Z,5.34
2023-03-02T22:53:29.471Z,5.38
2023-03-02T22:55:59.576Z,5.44
2023-03-02T22:58:45.799Z,5.50
2023-03-02T23:01:21.821Z,5.46
2023-03-02T23:03:52.663Z,5.43
2023-03-02T23:06:27.581Z,5.42
2023-03-02T23:08:57.428Z,5.37
2023-03-02T23:11:25.885Z,5.35
2023-03-02T23:13:54.307Z,5.32
2023-03-02T23:16:24.115Z,5.32
2023-03-02T23:18:54.901Z,5.27
2023-03-02T23:21:28.251Z,5.27
2023-03-02T23:23:56.257Z,5.27
2023-03-02T23:26:24.022Z,5.29
2023-03-02T23:28:52.130Z,5.22
2023-03-02T23:31:21.195Z,5.25
2023-03-02T23:33:49.343Z,5.18
2023-03-02T23:36:21.117Z,5.19
2023-03-02T23:38:49.653Z,5.15
2023-03-02T23:41:18.349Z,5.14
2023-03-02T23:43:46.520Z,5.12
2023-03-02T23:46:14.573Z,5.10
2023-03-02T23:48:42.567Z,5.04
2023-03-02T23:51:10.919Z,5.02
2023-03-02T23:53:40.014Z,5.00
2023-03-02T23:56:08.373Z,4.97
2023-03-02T23:58:36.113Z,4.99
